Airfield :
LOGIN :

Register | Disclaimer

   EN    FR    IT 

 










Legend :    VFR   Marginal VFR   IFR   Intensive IFR   Very Intensive IFR
Visi :
Ceiling :
>= 8 km
>= 3000ft
5 to 8 km
1000 to 3000 ft
1500m to 5 km
500 to 1000 ft
800 to 1500m
200 to 500 ft
< 800m
< 200 ft
Symbols :   Thunderstorms  Fog  Heavy snow  Heavy precipitations  Wind > 20 kt
SIGMETs :     Misc.  Thunderstorms  Icing  Turbulence  Mountain Waves  Volcanic Ashes






- Airport Elevation : 333 ft


LIPL - Ghedi Brescia (Mil)

CURRENT METAR :
  • 231355Z 03008KT 6000 -RA FEW008 SCT024 08/08 Q1007 RMK OVC VIS MIN 6000 WIND THR31 03008KT WIND THR13 03009KT WHT

EXPIRED METARs :
  • 231303Z 32003KT 4000 -RA BR FEW008 SCT022 08/08 Q1007 RMK OVC VIS MIN 4000 WIND THR31 32004KT WIND THR13 31003KT GRN
  • 231230Z 32006KT 5000 -RA BR SCT022 SCT030 08/08 Q1007 RMK OVC VIS MIN 5000 WIND THR31 32007KT WIND THR13 33007KT WHT
  • 231155Z 24001KT 3200 -RA BR SCT015 SCT022 08/07 Q1007
  • 231055Z 01002KT 3200 -RA BR FEW012 SCT016 09/08 Q1007
  • 231020Z 29004KT 4000 -RA BR SCT006 SCT015 09/08 Q1007 RMK OVC VIS MIN 4000 WIND THR31 30003KT WIND THR13 28004KT GRN
  • 230955Z 30006KT 6000 FEW008 SCT022 08/08 Q1007
  • 230855Z 30008KT 5000 BR SCT006 SCT026 07/07 Q1007 RMK OVC VIS MIN 5000 WIND THR31 29008KT WIND THR13 30008KT WHT

TAF TAF LIPL
Valid from the 23 at 12:00 until the 23 at 21:00 UTC


231100Z 2312/2321 30005KT 6000 RA FEW010 SCT020 BKN060
TEMPO 2312/2315 2500 SHRA FEW005 BKN013



MET'MAP, your aeronautical weather chart ! - Copyright ORBIFLY December 2007 - Disclaimer

ORBIFLY MET'MAP TEAM :

Programming & Development : Alexandra Zaïnal
Original concept : Baudouin d'Aumeries
Technical & hardware support : Manuel Goepfert
Assistance : Marc-Olivier Méhu




SOURCES & CREDITS :

   NOAA